West Bay Shore, New York
Current Conditions -  °F | °C
As of 12:53 AM on Tuesday 21 Oct 2014 (Local Time) from KFRG Reporting Station
Clear Clear  
Wind Chill: 57°   Ceiling: Unl
Heat Index: 57°   Visibility: 10mi
Dew Point: 46°   Wind: 5mph
Humidity: 67%   Direction: 240°WSW
Pressure: 29.97"   Gusts: NA
Location:  40.7379°N, 73.2632°W
Report Text: KFRG 210453Z 24004KT 10SM CLR 14/08 A2997 RMK AO2 SLP150 T01390078 401560028
Loading
Personal Weather Stations






























Interactive Weather Map
Tropical Storm Tracking
New forecast layout! Learn more

10-Day Weather Forecast

Advertisements
Track Severe Weather on mobile